Time;durP1;ratioP1;P1;durP2;ratioP2;P2;SDS_P1;SDS_P2;PMS_P1;PMS_P2;Temp;Humidity;BMP_temperature;BMP_pressure;BME280_temperature;BME280_humidity;BME280_pressure;Samples;Min_cycle;Max_cycle;Signal;HPM_P1;HPM_P2
2022/07/15 00:02:07;;;;;;;13.33;3.60;;;20.40;21.50;;;;;;5037983;28;46423;-65
2022/07/15 00:04:34;;;;;;;23.60;3.20;;;20.40;21.70;;;;;;5039626;28;46619;-64
2022/07/15 00:07:00;;;;;;;11.67;3.47;;;20.40;21.80;;;;;;5038687;28;47917;-63
2022/07/15 00:12:11;;;;;;;7.43;3.00;;;20.50;21.90;;;;;;5039996;28;45946;-65
2022/07/15 00:14:38;;;;;;;8.40;3.50;;;20.50;21.70;;;;;;5038560;28;46120;-64
2022/07/15 00:17:06;;;;;;;6.27;3.40;;;20.50;21.60;;;;;;5039662;28;48099;-65
2022/07/15 00:19:32;;;;;;;9.77;3.40;;;20.50;21.50;;;;;;5039438;28;45870;-65
2022/07/15 00:21:58;;;;;;;7.63;3.37;;;20.50;21.40;;;;;;5039799;28;46469;-64
2022/07/15 00:24:23;;;;;;;7.60;3.13;;;20.60;21.40;;;;;;5040110;28;46435;-64
2022/07/15 00:26:49;;;;;;;7.67;3.03;;;20.50;21.50;;;;;;5039631;28;46303;-65
2022/07/15 00:29:15;;;;;;;8.13;3.10;;;20.50;21.80;;;;;;5038955;28;45922;-64
2022/07/15 00:31:41;;;;;;;8.00;3.20;;;20.40;21.80;;;;;;5039976;28;46418;-64
2022/07/15 00:34:06;;;;;;;8.63;3.30;;;20.50;22.20;;;;;;5038826;28;46617;-64
2022/07/15 00:36:32;;;;;;;7.83;2.87;;;20.40;22.30;;;;;;5039302;28;47047;-64
2022/07/15 00:38:57;;;;;;;5.97;3.27;;;20.30;22.60;;;;;;5040322;28;46256;-64
2022/07/15 00:41:23;;;;;;;5.70;3.00;;;20.30;22.60;;;;;;5041508;28;46693;-64
2022/07/15 00:43:49;;;;;;;8.00;3.20;;;20.20;22.60;;;;;;5040243;28;45963;-64
2022/07/15 00:46:18;;;;;;;10.23;3.60;;;20.20;22.60;;;;;;5037593;28;47252;-64
2022/07/15 00:48:45;;;;;;;7.70;3.90;;;20.20;22.60;;;;;;5039656;28;46596;-65
2022/07/15 00:51:10;;;;;;;8.93;3.47;;;20.20;22.60;;;;;;5036628;28;46428;-64
2022/07/15 00:53:38;;;;;;;5.60;2.90;;;20.10;22.50;;;;;;5038742;28;46378;-65
2022/07/15 00:56:08;;;;;;;9.43;3.33;;;20.10;22.90;;;;;;5038880;28;46429;-64
2022/07/15 00:58:37;;;;;;;11.10;3.83;;;20.00;23.10;;;;;;5034014;28;46450;-65
2022/07/15 01:01:03;;;;;;;9.70;3.50;;;20.00;23.20;;;;;;5039217;28;46434;-65
2022/07/15 01:03:31;;;;;;;6.80;3.40;;;19.90;23.20;;;;;;5037623;28;46415;-65
2022/07/15 01:05:57;;;;;;;6.07;3.00;;;19.80;23.30;;;;;;5038014;28;46425;-65
2022/07/15 01:08:23;;;;;;;11.37;3.30;;;19.80;23.50;;;;;;5035273;28;46422;-65
2022/07/15 01:10:50;;;;;;;12.10;4.23;;;19.80;23.30;;;;;;5039896;28;46318;-65
2022/07/15 01:13:16;;;;;;;5.77;3.10;;;19.80;23.40;;;;;;5036914;28;46401;-65
2022/07/15 01:15:42;;;;;;;8.40;3.53;;;19.70;23.50;;;;;;5036185;28;46442;-64
2022/07/15 01:18:08;;;;;;;9.27;3.60;;;19.60;23.60;;;;;;5037528;28;46421;-65
2022/07/15 01:20:33;;;;;;;5.90;3.43;;;19.60;23.60;;;;;;5035282;28;46458;-64
2022/07/15 01:23:00;;;;;;;12.73;3.40;;;19.50;23.70;;;;;;5039874;28;46212;-65
2022/07/15 01:25:27;;;;;;;7.90;2.93;;;19.50;23.80;;;;;;5038620;28;46393;-65
2022/07/15 01:27:53;;;;;;;10.87;3.40;;;19.40;24.10;;;;;;5042652;28;46378;-65
2022/07/15 01:30:18;;;;;;;8.00;3.37;;;19.40;23.90;;;;;;5040761;28;46387;-65
2022/07/15 01:32:44;;;;;;;10.23;3.10;;;19.40;23.70;;;;;;5042526;28;46409;-65
2022/07/15 01:35:09;;;;;;;10.17;3.97;;;19.30;23.80;;;;;;5040493;28;46445;-65
2022/07/15 01:37:35;;;;;;;5.60;3.50;;;19.30;23.80;;;;;;5038572;28;46546;-64
2022/07/15 01:40:01;;;;;;;7.40;3.30;;;19.30;23.60;;;;;;5038960;28;46613;-65
2022/07/15 01:42:26;;;;;;;6.90;3.40;;;19.30;23.60;;;;;;5040635;28;46428;-65
2022/07/15 01:44:52;;;;;;;10.93;3.40;;;19.20;23.60;;;;;;5040078;28;47287;-65
2022/07/15 01:47:17;;;;;;;7.43;3.47;;;19.20;23.50;;;;;;5039744;28;46431;-66
2022/07/15 01:49:43;;;;;;;7.57;3.37;;;19.20;23.50;;;;;;5040585;28;46528;-66
2022/07/15 01:52:09;;;;;;;5.67;2.93;;;19.10;23.40;;;;;;5039507;28;46538;-65
2022/07/15 01:54:36;;;;;;;7.77;3.27;;;19.10;23.40;;;;;;5040440;28;46528;-65
2022/07/15 01:57:02;;;;;;;8.20;3.63;;;19.10;23.50;;;;;;5040294;28;46622;-65
2022/07/15 01:59:27;;;;;;;8.93;3.63;;;19.10;23.30;;;;;;5039939;28;45977;-65
2022/07/15 02:01:55;;;;;;;6.87;3.10;;;19.10;23.30;;;;;;5040138;28;46548;-65
2022/07/15 02:04:21;;;;;;;8.33;3.17;;;19.10;23.30;;;;;;5040865;28;46576;-65
2022/07/15 02:06:47;;;;;;;5.90;2.90;;;19.10;23.40;;;;;;5041446;28;46438;-65
2022/07/15 02:09:12;;;;;;;13.90;3.90;;;19.10;23.60;;;;;;5040768;28;46431;-65
2022/07/15 02:11:39;;;;;;;7.63;3.00;;;19.10;23.50;;;;;;5041376;28;46502;-65
2022/07/15 02:14:05;;;;;;;8.30;3.17;;;19.00;23.40;;;;;;5041051;28;47105;-65
2022/07/15 02:16:33;;;;;;;6.03;3.23;;;19.00;23.60;;;;;;5040763;28;46892;-65
2022/07/15 02:19:00;;;;;;;6.10;3.33;;;19.10;23.60;;;;;;5040242;28;46319;-65
2022/07/15 02:21:26;;;;;;;5.23;2.80;;;19.10;23.40;;;;;;5040537;28;46472;-64
2022/07/15 02:23:52;;;;;;;6.07;2.73;;;19.00;23.50;;;;;;5039573;28;47197;-65
2022/07/15 02:26:18;;;;;;;6.83;3.23;;;19.00;23.60;;;;;;5039524;28;46445;-65
2022/07/15 02:28:44;;;;;;;9.07;3.13;;;18.90;23.60;;;;;;5040236;28;46462;-65
2022/07/15 02:31:09;;;;;;;8.67;2.60;;;18.90;23.80;;;;;;5039627;28;46479;-65
2022/07/15 02:33:35;;;;;;;7.23;2.60;;;18.80;23.80;;;;;;5040432;28;46487;-65
2022/07/15 02:36:01;;;;;;;9.73;2.80;;;18.80;23.80;;;;;;5036759;28;46383;-65
2022/07/15 02:38:26;;;;;;;8.33;3.30;;;18.70;23.90;;;;;;5039107;28;46405;-65
2022/07/15 02:40:52;;;;;;;5.17;2.80;;;18.60;24.30;;;;;;5041314;28;46639;-64
2022/07/15 02:43:17;;;;;;;7.07;2.80;;;18.50;24.20;;;;;;5039090;28;47198;-64
2022/07/15 02:45:44;;;;;;;16.40;3.50;;;18.50;24.20;;;;;;5039689;28;45822;-64
2022/07/15 02:48:10;;;;;;;9.00;3.00;;;18.40;24.20;;;;;;5039078;28;46446;-64
2022/07/15 02:50:36;;;;;;;7.63;3.30;;;18.30;24.30;;;;;;5041055;28;46281;-65
2022/07/15 02:53:03;;;;;;;9.07;3.13;;;18.20;24.30;;;;;;5039531;28;47107;-64
2022/07/15 02:55:29;;;;;;;7.40;2.70;;;18.20;24.30;;;;;;5039720;28;47265;-64
2022/07/15 02:57:55;;;;;;;7.23;3.10;;;18.10;24.20;;;;;;5040230;28;46420;-64
2022/07/15 03:00:20;;;;;;;10.53;3.50;;;18.10;24.10;;;;;;5038056;28;46403;-64
2022/07/15 03:02:47;;;;;;;6.60;2.93;;;18.10;24.30;;;;;;5040671;28;46485;-64
2022/07/15 03:05:13;;;;;;;7.87;2.80;;;18.00;24.30;;;;;;5038419;28;46385;-64
2022/07/15 03:07:40;;;;;;;6.63;3.03;;;18.00;24.50;;;;;;5040125;28;46303;-64
2022/07/15 03:10:08;;;;;;;10.00;3.70;;;17.90;24.40;;;;;;5038827;28;46269;-64
2022/07/15 03:12:33;;;;;;;9.43;3.17;;;17.90;24.50;;;;;;5039667;28;47266;-64
2022/07/15 03:15:00;;;;;;;12.27;3.70;;;17.90;24.50;;;;;;5039373;28;46534;-64
2022/07/15 03:17:26;;;;;;;14.23;3.40;;;17.90;24.40;;;;;;5041685;28;46472;-64
2022/07/15 03:19:52;;;;;;;9.67;3.10;;;17.90;24.30;;;;;;5040331;28;46418;-65
2022/07/15 03:22:18;;;;;;;6.93;3.03;;;17.90;24.30;;;;;;5039689;28;46476;-64
2022/07/15 03:24:43;;;;;;;7.03;3.20;;;17.90;24.20;;;;;;5040745;28;46629;-65
2022/07/15 03:27:09;;;;;;;8.47;2.83;;;17.90;24.30;;;;;;5040081;28;46373;-65
2022/07/15 03:29:35;;;;;;;6.87;2.90;;;17.90;24.30;;;;;;5039220;28;46491;-64
2022/07/15 03:32:01;;;;;;;7.10;3.43;;;17.90;24.30;;;;;;5039126;28;47100;-64
2022/07/15 03:34:27;;;;;;;8.40;3.00;;;17.80;24.20;;;;;;5041244;28;46501;-64
2022/07/15 03:36:54;;;;;;;10.27;3.30;;;17.80;24.20;;;;;;5039657;28;46714;-64
2022/07/15 03:39:20;;;;;;;4.90;2.60;;;17.80;24.40;;;;;;5040529;28;45954;-64
2022/07/15 03:41:48;;;;;;;16.43;3.33;;;17.70;24.50;;;;;;5038664;28;46610;-64
2022/07/15 03:44:14;;;;;;;9.77;3.37;;;17.70;24.40;;;;;;5040801;28;46455;-64
2022/07/15 03:46:40;;;;;;;8.07;3.47;;;17.70;24.50;;;;;;5041232;28;46433;-65
2022/07/15 03:49:05;;;;;;;8.63;3.37;;;17.80;24.40;;;;;;5040435;28;46331;-64
2022/07/15 03:51:32;;;;;;;10.00;3.00;;;17.80;24.30;;;;;;5040920;28;47205;-64
2022/07/15 03:53:59;;;;;;;9.77;3.77;;;17.90;24.30;;;;;;5039278;28;46330;-64
2022/07/15 03:56:26;;;;;;;8.10;3.00;;;17.90;24.40;;;;;;5039721;28;46454;-64
2022/07/15 03:58:52;;;;;;;8.33;2.83;;;17.80;24.50;;;;;;5037451;28;46436;-64
2022/07/15 04:01:17;;;;;;;9.70;3.40;;;17.80;24.50;;;;;;5039649;28;46414;-64
2022/07/15 04:03:43;;;;;;;11.60;2.80;;;17.90;24.70;;;;;;5039536;28;45835;-64
2022/07/15 04:06:09;;;;;;;8.97;3.70;;;17.90;24.50;;;;;;5039225;28;46422;-64
2022/07/15 04:08:35;;;;;;;8.80;3.33;;;17.90;24.70;;;;;;5036949;28;46451;-64
2022/07/15 04:11:00;;;;;;;14.87;3.43;;;18.00;24.60;;;;;;5039360;28;46327;-63
2022/07/15 04:13:26;;;;;;;11.17;3.50;;;18.00;24.60;;;;;;5037837;28;46377;-63
2022/07/15 04:15:52;;;;;;;8.23;3.50;;;17.90;24.50;;;;;;5037553;28;46389;-63
2022/07/15 04:18:18;;;;;;;6.60;3.50;;;18.00;24.70;;;;;;5038826;28;46573;-63
2022/07/15 04:20:44;;;;;;;13.10;3.60;;;18.10;24.60;;;;;;5038449;28;46433;-64
2022/07/15 04:23:09;;;;;;;13.63;3.23;;;18.10;24.70;;;;;;5038817;28;46377;-64
2022/07/15 04:25:35;;;;;;;5.87;3.10;;;18.00;24.90;;;;;;5039017;28;46458;-63
2022/07/15 04:28:01;;;;;;;9.60;3.50;;;18.00;25.20;;;;;;5037623;28;46042;-63
2022/07/15 04:30:27;;;;;;;7.37;3.60;;;18.00;25.40;;;;;;5039565;28;47653;-63
2022/07/15 04:32:52;;;;;;;11.27;3.47;;;18.00;25.40;;;;;;5037205;28;46453;-63
2022/07/15 04:35:18;;;;;;;9.30;3.10;;;18.20;25.20;;;;;;5039186;28;46566;-63
2022/07/15 04:37:44;;;;;;;7.87;3.63;;;18.30;25.10;;;;;;5037983;28;46381;-63
2022/07/15 04:40:10;;;;;;;8.33;2.83;;;18.40;25.10;;;;;;5037841;28;47075;-62
2022/07/15 04:42:36;;;;;;;12.33;3.10;;;18.60;24.90;;;;;;5035165;28;46295;-63
2022/07/15 04:45:02;;;;;;;10.97;3.63;;;18.60;24.80;;;;;;5037455;28;46382;-63
2022/07/15 04:47:27;;;;;;;6.17;2.73;;;18.70;24.80;;;;;;5037550;28;46362;-63
2022/07/15 04:52:42;;;;;;;12.10;3.40;;;19.10;24.10;;;;;;5035630;28;45753;-63
2022/07/15 04:55:08;;;;;;;7.93;3.13;;;19.80;23.60;;;;;;5034185;28;46316;-63
2022/07/15 04:57:34;;;;;;;9.37;3.33;;;21.20;22.50;;;;;;5039284;28;45877;-63
2022/07/15 04:59:59;;;;;;;8.37;2.73;;;22.10;20.70;;;;;;5034482;28;46449;-63
2022/07/15 05:02:25;;;;;;;9.60;2.87;;;22.50;19.70;;;;;;5038128;28;46455;-65
2022/07/15 05:04:51;;;;;;;8.40;2.67;;;22.30;19.50;;;;;;5036496;28;46248;-63
2022/07/15 05:07:17;;;;;;;6.27;2.87;;;21.90;20.20;;;;;;5036195;28;46362;-64
2022/07/15 05:09:42;;;;;;;12.53;3.10;;;21.60;20.40;;;;;;5036584;28;46390;-62
2022/07/15 05:12:08;;;;;;;7.83;2.97;;;21.00;21.00;;;;;;5034553;28;46411;-64
2022/07/15 05:14:33;;;;;;;6.90;2.60;;;20.70;21.60;;;;;;5036967;28;46417;-62
2022/07/15 05:17:00;;;;;;;7.50;2.83;;;20.50;21.80;;;;;;5036255;28;46653;-63
2022/07/15 05:19:25;;;;;;;6.47;2.93;;;20.10;22.50;;;;;;5035841;28;46481;-62
2022/07/15 05:21:51;;;;;;;7.30;2.73;;;20.00;22.40;;;;;;5038683;28;46531;-62
2022/07/15 05:24:18;;;;;;;8.87;3.13;;;19.80;22.30;;;;;;5036562;28;46389;-62
2022/07/15 05:26:44;;;;;;;7.13;3.00;;;20.10;22.50;;;;;;5038703;28;46333;-62
2022/07/15 05:29:10;;;;;;;10.20;2.90;;;20.00;22.40;;;;;;5036063;28;46991;-62
2022/07/15 05:31:35;;;;;;;9.13;3.30;;;19.90;22.40;;;;;;5039343;28;45852;-63
2022/07/15 05:34:01;;;;;;;8.40;3.00;;;19.80;22.30;;;;;;5036068;28;46373;-62
2022/07/15 05:36:27;;;;;;;6.87;2.77;;;20.00;22.40;;;;;;5039302;28;46454;-63
2022/07/15 05:38:53;;;;;;;6.77;3.33;;;20.40;21.60;;;;;;5036087;28;47266;-63
2022/07/15 05:41:19;;;;;;;6.77;2.20;;;21.80;19.60;;;;;;5039164;28;46497;-63
2022/07/15 05:43:44;;;;;;;14.47;2.63;;;23.40;17.40;;;;;;5039121;28;46487;-62
2022/07/15 05:46:11;;;;;;;10.13;2.67;;;24.60;15.30;;;;;;5037597;28;46695;-63
2022/07/15 05:48:39;;;;;;;9.83;2.30;;;25.10;14.90;;;;;;5038096;28;46434;-63
2022/07/15 05:51:05;;;;;;;10.50;2.20;;;25.20;14.20;;;;;;5035832;28;46413;-64
2022/07/15 05:53:31;;;;;;;6.00;2.33;;;25.70;12.70;;;;;;5037504;28;46433;-64
2022/07/15 05:55:57;;;;;;;4.60;2.20;;;25.80;11.60;;;;;;5035493;28;46607;-64
2022/07/15 05:58:23;;;;;;;10.60;2.30;;;26.00;10.80;;;;;;5035234;28;47088;-64
2022/07/15 06:00:53;;;;;;;7.40;2.13;;;26.70;9.80;;;;;;5037528;28;46370;-63
2022/07/15 06:03:18;;;;;;;5.17;1.97;;;26.80;9.90;;;;;;5036852;28;46454;-62
2022/07/15 06:05:44;;;;;;;7.17;1.80;;;25.80;11.10;;;;;;5037447;28;46382;-63
2022/07/15 06:08:10;;;;;;;9.87;2.67;;;25.40;11.80;;;;;;5032224;28;46170;-64
2022/07/15 06:10:37;;;;;;;5.00;1.87;;;24.20;12.90;;;;;;5038192;28;45908;-64
2022/07/15 06:13:03;;;;;;;8.47;2.10;;;23.60;13.90;;;;;;5037720;28;46381;-64
2022/07/15 06:15:29;;;;;;;7.30;2.60;;;23.30;14.80;;;;;;5040307;28;46243;-64
2022/07/15 06:17:56;;;;;;;6.53;2.17;;;23.00;15.70;;;;;;5039747;28;46572;-64
2022/07/15 06:20:22;;;;;;;5.20;1.90;;;23.00;15.50;;;;;;5040116;28;46397;-64
2022/07/15 06:22:48;;;;;;;9.17;2.57;;;22.90;15.60;;;;;;5042323;28;45928;-65
2022/07/15 06:25:13;;;;;;;8.80;1.87;;;23.00;15.20;;;;;;5040409;28;46557;-64
2022/07/15 06:27:39;;;;;;;11.20;2.53;;;22.70;14.90;;;;;;5038453;28;49449;-65
2022/07/15 06:30:06;;;;;;;5.50;2.00;;;22.50;14.70;;;;;;5040531;28;46415;-65
2022/07/15 06:32:31;;;;;;;4.67;1.90;;;22.40;14.90;;;;;;5042205;28;46508;-65
2022/07/15 06:34:57;;;;;;;5.07;1.87;;;22.40;14.60;;;;;;5037124;28;46530;-65
2022/07/15 06:37:22;;;;;;;14.23;2.20;;;22.30;14.20;;;;;;5039120;28;47947;-65
2022/07/15 06:39:48;;;;;;;12.13;2.20;;;22.30;14.10;;;;;;5039999;28;46556;-63
2022/07/15 06:42:14;;;;;;;5.67;2.10;;;22.30;14.00;;;;;;5039990;28;46378;-64
2022/07/15 06:44:40;;;;;;;10.70;2.40;;;22.40;13.60;;;;;;5040402;28;46690;-66
2022/07/15 06:47:06;;;;;;;10.50;2.40;;;22.40;13.00;;;;;;5039672;28;46593;-64
2022/07/15 06:49:34;;;;;;;7.23;2.00;;;22.40;13.40;;;;;;5039829;28;46461;-64
2022/07/15 06:52:00;;;;;;;10.50;2.17;;;22.40;13.10;;;;;;5039902;28;45720;-64
2022/07/15 06:54:26;;;;;;;7.60;2.23;;;22.10;13.60;;;;;;5038481;28;45962;-65
2022/07/15 06:56:52;;;;;;;7.20;2.07;;;21.90;14.00;;;;;;5038893;28;48268;-64
2022/07/15 06:59:17;;;;;;;11.17;2.30;;;22.00;13.90;;;;;;5039460;28;46589;-64
2022/07/15 07:01:43;;;;;;;9.98;2.35;;;21.90;13.60;;;;;;5039071;28;46441;-64
2022/07/15 07:04:09;;;;;;;6.00;2.10;;;21.90;14.20;;;;;;5040741;28;46425;-64
2022/07/15 07:06:34;;;;;;;6.10;2.10;;;21.90;13.80;;;;;;5036783;28;47104;-64
2022/07/15 07:09:00;;;;;;;16.70;2.50;;;22.10;13.40;;;;;;5035280;28;46510;-64
2022/07/15 07:11:26;;;;;;;7.93;1.90;;;22.10;13.30;;;;;;5040306;28;46469;-64
2022/07/15 07:13:51;;;;;;;9.30;2.50;;;22.30;13.00;;;;;;5036523;28;46608;-65
2022/07/15 07:16:18;;;;;;;10.40;2.20;;;22.20;13.00;;;;;;5039504;28;47207;-64
2022/07/15 07:18:47;;;;;;;5.90;1.97;;;22.30;13.00;;;;;;5036846;28;46468;-64
2022/07/15 07:21:13;;;;;;;9.30;2.73;;;22.60;14.10;;;;;;5038772;28;45898;-65
2022/07/15 07:23:39;;;;;;;7.90;2.30;;;22.50;13.10;;;;;;5037429;28;46600;-65
2022/07/15 07:26:07;;;;;;;8.50;2.10;;;22.50;13.10;;;;;;5036019;28;46436;-66
2022/07/15 07:28:33;;;;;;;5.07;2.10;;;22.50;13.10;;;;;;5035471;28;46454;-66
2022/07/15 07:30:59;;;;;;;4.60;1.80;;;22.60;13.20;;;;;;5035212;28;46418;-65
2022/07/15 07:33:25;;;;;;;8.30;2.50;;;22.70;13.20;;;;;;5041349;28;46367;-64
2022/07/15 07:35:51;;;;;;;6.83;2.20;;;22.50;13.10;;;;;;5036343;28;46480;-65
2022/07/15 07:38:17;;;;;;;9.07;3.03;;;22.40;13.30;;;;;;5037078;28;46418;-65
2022/07/15 07:40:43;;;;;;;6.07;1.90;;;22.50;13.10;;;;;;5036014;28;46307;-64
2022/07/15 07:43:09;;;;;;;6.73;2.43;;;22.70;13.30;;;;;;5036874;28;46009;-65
2022/07/15 07:45:35;;;;;;;8.20;2.30;;;22.80;13.30;;;;;;5039066;28;48098;-64
2022/07/15 07:48:00;;;;;;;6.40;2.27;;;22.90;13.40;;;;;;5034636;28;46385;-65
2022/07/15 07:50:26;;;;;;;5.83;2.13;;;22.70;13.30;;;;;;5037763;28;46469;-64
2022/07/15 07:52:52;;;;;;;5.80;2.00;;;22.90;13.40;;;;;;5037597;28;46631;-64
2022/07/15 07:55:17;;;;;;;13.75;2.67;;;23.20;13.60;;;;;;5035772;28;46614;-62
2022/07/15 07:57:54;;;;;;;4.77;2.43;;;23.40;12.90;;;;;;5037273;28;46505;-65
2022/07/15 08:00:21;;;;;;;9.83;2.50;;;23.50;12.80;;;;;;5037928;28;46364;-65
2022/07/15 08:02:47;;;;;;;9.23;1.90;;;23.70;12.50;;;;;;5038832;28;46673;-66
2022/07/15 08:05:14;;;;;;;6.93;2.07;;;23.80;12.30;;;;;;5037811;28;47445;-65
2022/07/15 08:07:41;;;;;;;9.07;2.77;;;23.40;12.70;;;;;;5038181;28;46417;-64
2022/07/15 08:10:09;;;;;;;12.03;2.50;;;23.40;12.80;;;;;;5036632;28;46395;-66
2022/07/15 08:12:37;;;;;;;9.63;2.20;;;23.50;12.40;;;;;;5038484;28;46482;-64
2022/07/15 08:15:08;;;;;;;12.77;2.50;;;23.80;12.20;;;;;;5036930;28;46419;-65
2022/07/15 08:17:35;;;;;;;9.90;2.30;;;24.00;11.90;;;;;;5038033;28;46715;-64
2022/07/15 08:20:01;;;;;;;5.20;2.30;;;24.00;11.70;;;;;;5035154;28;46538;-66
2022/07/15 08:22:26;;;;;;;7.67;2.20;;;23.50;12.20;;;;;;5036567;28;46509;-64
2022/07/15 08:24:52;;;;;;;9.87;2.63;;;23.40;12.70;;;;;;5037466;28;47372;-66
2022/07/15 08:27:18;;;;;;;15.30;3.03;;;23.40;12.50;;;;;;5035593;28;46503;-66
2022/07/15 08:29:44;;;;;;;8.60;2.53;;;23.50;12.40;;;;;;5036334;28;45914;-65
2022/07/15 08:32:10;;;;;;;13.27;2.13;;;23.50;12.30;;;;;;5035988;28;46483;-66
2022/07/15 08:34:36;;;;;;;6.03;2.30;;;23.50;12.20;;;;;;5035960;28;46397;-65
2022/07/15 08:37:02;;;;;;;7.50;2.20;;;23.60;12.40;;;;;;5036755;28;46521;-65
2022/07/15 08:39:28;;;;;;;7.50;2.30;;;23.50;12.60;;;;;;5038094;28;45937;-65
2022/07/15 08:41:54;;;;;;;6.03;1.90;;;23.60;12.10;;;;;;5039102;28;45858;-66
2022/07/15 08:44:20;;;;;;;5.80;1.80;;;23.80;12.20;;;;;;5036956;28;46488;-65
2022/07/15 08:46:47;;;;;;;10.07;2.50;;;24.10;11.80;;;;;;5037946;28;46422;-65
2022/07/15 08:49:18;;;;;;;7.40;2.50;;;24.30;11.30;;;;;;5036120;28;46382;-65
2022/07/15 08:51:46;;;;;;;9.87;2.30;;;23.90;12.10;;;;;;5038586;28;46830;-66
2022/07/15 08:54:13;;;;;;;7.27;2.30;;;23.80;11.80;;;;;;5036864;28;46578;-66
2022/07/15 08:56:39;;;;;;;11.37;2.50;;;23.90;11.70;;;;;;5037526;28;46482;-65
2022/07/15 08:59:06;;;;;;;9.87;2.40;;;24.00;11.60;;;;;;5036411;28;46370;-65
2022/07/15 09:01:33;;;;;;;5.67;2.27;;;24.30;11.30;;;;;;5037486;28;46429;-66
2022/07/15 09:03:59;;;;;;;8.17;3.10;;;24.50;10.90;;;;;;5037144;28;47124;-66
2022/07/15 09:06:39;;;;;;;8.43;2.37;;;24.60;10.70;;;;;;5037161;28;46458;-66
2022/07/15 09:09:24;;;;;;;7.20;2.73;;;24.30;11.00;;;;;;5036469;28;46525;-64
2022/07/15 09:12:00;;;;;;;10.40;2.83;;;24.00;11.20;;;;;;5038918;28;46453;-65
2022/07/15 09:14:30;;;;;;;9.63;2.87;;;24.20;11.50;;;;;;5036559;28;46428;-65
2022/07/15 09:17:11;;;;;;;9.90;2.30;;;24.20;11.20;;;;;;5036481;28;46428;-66
2022/07/15 09:20:07;;;;;;;7.37;2.50;;;24.50;11.00;;;;;;5037197;28;46466;-65
2022/07/15 09:22:49;;;;;;;6.50;2.10;;;24.60;10.90;;;;;;5036571;28;46387;-65
2022/07/15 09:25:15;;;;;;;5.80;2.00;;;24.50;11.10;;;;;;5036914;28;46562;-65
2022/07/15 09:27:43;;;;;;;6.70;2.30;;;24.50;11.10;;;;;;5036738;28;46483;-65
2022/07/15 09:36:03;;;;;;;10.40;2.17;;;24.90;10.50;;;;;;5038405;28;46424;-65
2022/07/15 09:38:35;;;;;;;8.27;2.37;;;25.10;9.90;;;;;;5035998;28;46370;-65
2022/07/15 09:41:02;;;;;;;7.80;2.60;;;25.20;9.90;;;;;;5037023;28;46295;-65
2022/07/15 09:43:28;;;;;;;9.60;2.80;;;25.40;9.90;;;;;;5037874;28;46451;-65
2022/07/15 09:46:01;;;;;;;5.97;2.57;;;25.40;10.00;;;;;;5038352;28;46716;-66
2022/07/15 09:48:28;;;;;;;5.13;2.30;;;25.40;9.60;;;;;;5037690;28;46358;-66
2022/07/15 09:50:59;;;;;;;12.53;3.47;;;25.50;9.60;;;;;;5040922;28;46441;-66
2022/07/15 09:53:25;;;;;;;4.33;2.10;;;25.70;9.20;;;;;;5040686;28;46362;-67
2022/07/15 09:55:52;;;;;;;6.27;3.07;;;25.90;8.80;;;;;;5040557;28;46439;-67
2022/07/15 09:58:18;;;;;;;7.37;2.23;;;25.70;9.00;;;;;;5040021;28;46481;-67
2022/07/15 10:00:44;;;;;;;6.60;2.50;;;25.80;8.80;;;;;;5040034;28;46336;-66
2022/07/15 10:03:11;;;;;;;8.23;2.67;;;26.10;8.40;;;;;;5040874;28;46567;-66
2022/07/15 10:05:39;;;;;;;10.63;2.43;;;26.10;8.20;;;;;;5040446;28;46501;-66
2022/07/15 10:08:08;;;;;;;9.33;2.57;;;25.90;8.00;;;;;;5038358;28;46709;-66
2022/07/15 10:10:34;;;;;;;9.80;2.57;;;26.00;7.90;;;;;;5038294;28;47107;-67
2022/07/15 10:13:20;;;;;;;10.67;2.50;;;26.10;8.30;;;;;;5040633;28;46406;-65
2022/07/15 10:16:03;;;;;;;6.90;2.33;;;26.20;8.50;;;;;;5039324;28;46510;-65
2022/07/15 10:19:05;;;;;;;6.70;2.70;;;26.40;8.20;;;;;;5038455;28;46528;-66
2022/07/15 10:21:40;;;;;;;6.83;2.83;;;26.20;8.10;;;;;;5039842;28;46360;-65
2022/07/15 10:24:12;;;;;;;4.87;2.20;;;25.70;8.30;;;;;;5039527;28;46426;-65
2022/07/15 10:27:04;;;;;;;7.67;3.03;;;25.40;8.70;;;;;;5038499;28;47165;-65
2022/07/15 10:29:31;;;;;;;7.07;2.60;;;25.30;8.60;;;;;;5033675;28;46557;-66
2022/07/15 10:31:58;;;;;;;8.80;2.50;;;25.50;8.50;;;;;;5037764;28;46503;-64
2022/07/15 10:34:33;;;;;;;8.73;2.63;;;26.00;8.20;;;;;;5039923;28;47015;-66
2022/07/15 10:37:02;;;;;;;7.20;2.40;;;25.80;7.90;;;;;;5038617;28;46558;-65
2022/07/15 10:39:48;;;;;;;5.67;2.50;;;25.60;8.10;;;;;;5038256;28;46421;-64
2022/07/15 10:42:14;;;;;;;5.17;2.23;;;25.60;8.40;;;;;;5040022;28;46343;-64
2022/07/15 10:45:01;;;;;;;5.73;2.67;;;25.80;8.20;;;;;;5037823;28;46582;-64
2022/07/15 10:47:27;;;;;;;5.23;2.47;;;25.80;7.90;;;;;;5032359;28;46389;-65
2022/07/15 10:49:54;;;;;;;14.97;2.97;;;25.90;8.10;;;;;;5038797;28;46429;-65
2022/07/15 10:52:32;;;;;;;7.67;2.33;;;25.90;7.90;;;;;;5038210;28;46377;-65
2022/07/15 10:55:04;;;;;;;14.87;2.60;;;26.20;7.40;;;;;;5035693;28;46714;-65
2022/07/15 10:57:42;;;;;;;5.60;2.17;;;26.40;7.20;;;;;;5036691;28;46588;-65
2022/07/15 11:00:28;;;;;;;9.07;2.10;;;26.50;6.60;;;;;;5037148;28;46407;-66
2022/07/15 11:03:11;;;;;;;11.27;2.80;;;26.70;7.00;;;;;;5039282;28;46685;-66
2022/07/15 11:05:53;;;;;;;11.87;2.90;;;27.00;6.80;;;;;;5038197;28;46535;-66
2022/07/15 11:08:36;;;;;;;17.53;2.50;;;27.20;6.30;;;;;;5036958;28;46077;-65
2022/07/15 11:11:14;;;;;;;4.70;2.70;;;27.40;6.30;;;;;;5037044;28;46482;-64
2022/07/15 11:13:49;;;;;;;6.13;3.03;;;27.30;5.60;;;;;;5033980;28;46524;-65
2022/07/15 11:16:19;;;;;;;7.87;2.77;;;27.30;5.70;;;;;;5036880;28;46487;-67
2022/07/15 11:18:50;;;;;;;9.90;2.70;;;27.10;5.80;;;;;;5036918;28;46537;-64
2022/07/15 11:21:16;;;;;;;9.53;3.00;;;26.60;5.30;;;;;;5039852;28;46586;-65
2022/07/15 11:23:46;;;;;;;5.00;2.90;;;26.70;6.10;;;;;;5037219;28;46533;-64
2022/07/15 11:26:12;;;;;;;10.57;2.40;;;26.90;5.80;;;;;;5037730;28;46402;-64
2022/07/15 11:28:38;;;;;;;3.80;2.40;;;26.60;5.90;;;;;;5035379;28;47169;-64
2022/07/15 11:31:04;;;;;;;7.37;2.40;;;26.70;6.10;;;;;;5036725;28;46498;-64
2022/07/15 11:33:30;;;;;;;5.60;2.40;;;26.60;5.80;;;;;;5039356;28;46435;-65
2022/07/15 11:36:02;;;;;;;5.10;2.40;;;26.50;5.90;;;;;;5038895;28;46408;-67
2022/07/15 11:38:31;;;;;;;7.00;2.60;;;26.60;5.90;;;;;;5034604;28;48270;-64
2022/07/15 11:46:30;;;;;;;7.07;2.60;;;26.30;5.90;;;;;;5039047;28;46443;-65
2022/07/15 11:48:57;;;;;;;9.67;3.00;;;26.30;6.40;;;;;;5036917;28;46672;-66
2022/07/15 11:51:30;;;;;;;7.57;2.73;;;26.60;6.20;;;;;;5039084;28;46424;-65
2022/07/15 11:53:57;;;;;;;7.90;2.63;;;26.60;6.00;;;;;;5039395;28;45843;-65
2022/07/15 11:56:24;;;;;;;13.00;3.17;;;26.70;5.70;;;;;;5039131;28;45933;-66
2022/07/15 11:58:53;;;;;;;9.70;3.10;;;27.00;5.40;;;;;;5036108;28;46209;-65
2022/07/15 12:01:26;;;;;;;11.70;2.83;;;27.50;4.90;;;;;;5036276;28;46389;-65
2022/07/15 12:03:53;;;;;;;11.10;2.85;;;27.70;4.90;;;;;;5036214;28;46419;-65
2022/07/15 12:06:31;;;;;;;9.77;3.13;;;27.70;4.90;;;;;;5037010;28;46331;-66
2022/07/15 12:08:59;;;;;;;5.13;2.60;;;27.70;4.90;;;;;;5035704;28;47229;-64
2022/07/15 12:11:37;;;;;;;6.67;2.87;;;27.80;5.00;;;;;;5040068;28;46501;-64
2022/07/15 12:14:12;;;;;;;7.63;3.23;;;28.00;4.50;;;;;;5037688;28;45899;-65
2022/07/15 12:16:45;;;;;;;11.10;3.10;;;28.10;3.90;;;;;;5039713;28;46363;-65
2022/07/15 12:19:26;;;;;;;7.57;2.87;;;28.20;3.80;;;;;;5036168;28;46373;-64
2022/07/15 12:21:55;;;;;;;6.03;2.70;;;28.00;3.50;;;;;;5039502;28;46716;-64
2022/07/15 12:24:25;;;;;;;10.30;3.40;;;28.10;3.70;;;;;;5038735;28;46534;-65
2022/07/15 12:26:52;;;;;;;8.70;2.90;;;27.80;3.30;;;;;;5039566;28;46532;-65
2022/07/15 12:29:20;;;;;;;33.47;6.43;;;27.50;3.80;;;;;;5037427;28;46450;-66
2022/07/15 12:32:13;;;;;;;7.10;2.90;;;27.60;4.30;;;;;;5040338;28;46361;-65
2022/07/15 12:34:47;;;;;;;6.60;2.57;;;27.60;3.70;;;;;;5036763;28;46652;-66
2022/07/15 12:37:16;;;;;;;19.33;5.00;;;27.90;3.60;;;;;;5038756;28;46597;-65
2022/07/15 12:40:04;;;;;;;4.90;2.70;;;28.00;3.60;;;;;;5037321;28;46776;-65
2022/07/15 12:42:51;;;;;;;11.77;3.10;;;27.70;3.50;;;;;;5040167;28;46646;-65
2022/07/15 12:45:25;;;;;;;10.70;3.00;;;27.60;3.70;;;;;;5038498;28;46432;-65
2022/07/15 12:47:57;;;;;;;8.80;2.83;;;27.60;3.60;;;;;;5037119;28;46423;-64
2022/07/15 12:50:22;;;;;;;6.67;3.10;;;27.80;3.60;;;;;;5037669;28;46628;-65
2022/07/15 12:52:48;;;;;;;8.00;3.00;;;27.60;3.40;;;;;;5043981;28;46347;-64
2022/07/15 12:55:26;;;;;;;12.73;2.87;;;27.20;3.80;;;;;;5038304;28;45866;-64
2022/07/15 12:58:05;;;;;;;9.30;3.00;;;27.40;5.00;;;;;;5037011;28;46334;-64
2022/07/15 13:00:31;;;;;;;7.77;2.70;;;28.00;3.70;;;;;;5035590;28;46399;-64
2022/07/15 13:02:57;;;;;;;4.63;2.60;;;28.10;3.20;;;;;;5034450;28;46361;-64
2022/07/15 13:05:23;;;;;;;6.90;2.87;;;27.80;2.40;;;;;;5038392;28;46378;-65
2022/07/15 13:07:49;;;;;;;6.87;3.30;;;26.90;3.30;;;;;;5037832;28;46380;-64
2022/07/15 13:10:15;;;;;;;4.90;2.60;;;26.50;4.30;;;;;;5036776;28;46420;-65